createdAt,value
2023-03-08T00:00:09.521Z,0.98
2023-03-08T00:00:59.592Z,1.00
2023-03-08T00:01:49.678Z,1.01
2023-03-08T00:02:39.736Z,1.01
2023-03-08T00:03:29.783Z,1.00
2023-03-08T00:04:19.946Z,0.98
2023-03-08T00:05:09.850Z,0.98
2023-03-08T00:05:59.911Z,0.99
2023-03-08T00:06:49.999Z,1.01
2023-03-08T00:07:40.027Z,1.01
2023-03-08T00:08:30.116Z,0.99
2023-03-08T00:09:20.154Z,1.00
2023-03-08T00:10:10.449Z,1.00
2023-03-08T00:11:00.489Z,1.02
2023-03-08T00:11:50.563Z,1.03
2023-03-08T00:12:40.594Z,1.08
2023-03-08T00:13:30.665Z,1.06
2023-03-08T00:14:20.741Z,1.02
2023-03-08T00:15:10.818Z,1.03
2023-03-08T00:16:00.939Z,1.04
2023-03-08T00:16:50.917Z,1.08
2023-03-08T00:17:40.988Z,1.12
2023-03-08T00:18:31.046Z,1.13
2023-03-08T00:19:21.072Z,1.11
2023-03-08T00:20:11.332Z,1.10
2023-03-08T00:21:01.361Z,1.11
2023-03-08T00:21:51.452Z,1.10
2023-03-08T00:22:41.478Z,1.09
2023-03-08T00:23:31.565Z,1.09
2023-03-08T00:24:21.604Z,1.08
2023-03-08T00:25:11.654Z,1.12
2023-03-08T00:26:01.674Z,1.11
2023-03-08T00:26:51.755Z,1.10
2023-03-08T00:27:41.885Z,1.08
2023-03-08T00:28:31.872Z,1.09
2023-03-08T00:29:22.006Z,1.06
2023-03-08T00:30:11.976Z,1.07
2023-03-08T00:31:02.037Z,1.06
2023-03-08T00:31:52.041Z,1.08
2023-03-08T00:32:42.168Z,1.06
2023-03-08T00:33:32.257Z,1.04
2023-03-08T00:34:22.318Z,1.03
2023-03-08T00:35:12.334Z,1.02
2023-03-08T00:36:02.375Z,1.01
2023-03-08T00:36:52.406Z,1.03
2023-03-08T00:37:42.449Z,1.00
2023-03-08T00:38:32.557Z,1.02
2023-03-08T00:39:22.562Z,1.00
2023-03-08T00:40:12.636Z,0.99
2023-03-08T00:41:02.670Z,0.98
2023-03-08T00:41:52.718Z,0.98
2023-03-08T00:42:42.747Z,0.98
2023-03-08T00:43:32.827Z,0.99
2023-03-08T00:44:22.879Z,1.00
2023-03-08T00:45:12.915Z,1.00
2023-03-08T00:46:02.944Z,0.97
2023-03-08T00:46:53.058Z,0.98
2023-03-08T00:47:43.067Z,0.98
2023-03-08T00:48:33.139Z,0.99
2023-03-08T00:49:23.446Z,0.96
2023-03-08T00:50:13.508Z,0.97
2023-03-08T00:51:03.534Z,0.94
2023-03-08T00:51:53.571Z,0.95
2023-03-08T00:52:43.648Z,0.93
2023-03-08T00:53:33.661Z,0.94
2023-03-08T00:54:23.719Z,0.95
2023-03-08T00:55:13.762Z,0.93
2023-03-08T00:56:03.849Z,0.93
2023-03-08T00:56:53.906Z,0.91
2023-03-08T00:57:43.937Z,0.91
2023-03-08T00:58:33.990Z,0.91
2023-03-08T00:59:24.030Z,0.92
2023-03-08T01:00:14.074Z,0.89
2023-03-08T01:01:04.246Z,0.90
2023-03-08T01:01:54.182Z,0.89
2023-03-08T01:02:44.271Z,0.90
2023-03-08T01:03:34.328Z,0.89
2023-03-08T01:04:24.388Z,0.87
2023-03-08T01:05:14.403Z,0.88
2023-03-08T01:06:04.499Z,0.88
2023-03-08T01:06:54.581Z,0.86
2023-03-08T01:07:44.597Z,0.85
2023-03-08T01:08:34.632Z,0.85
2023-03-08T01:09:24.688Z,0.85
2023-03-08T01:10:14.725Z,0.84
2023-03-08T01:11:04.769Z,0.86
2023-03-08T01:11:54.804Z,0.85
2023-03-08T01:12:44.899Z,0.85
2023-03-08T01:13:34.971Z,0.85
2023-03-08T01:14:25.033Z,0.85
2023-03-08T01:15:15.061Z,0.86
2023-03-08T01:16:05.119Z,0.85
2023-03-08T01:16:55.188Z,0.86
2023-03-08T01:17:45.231Z,0.85
2023-03-08T01:18:35.263Z,0.84
2023-03-08T01:19:25.343Z,0.84
2023-03-08T01:20:15.366Z,0.83
2023-03-08T01:21:05.411Z,0.84
2023-03-08T01:21:55.478Z,0.84
2023-03-08T01:22:45.498Z,0.83
2023-03-08T01:23:35.577Z,0.84
2023-03-08T01:24:25.652Z,0.85
2023-03-08T01:25:15.658Z,0.84
2023-03-08T01:26:05.706Z,0.83
2023-03-08T01:26:55.756Z,0.84
2023-03-08T01:27:45.784Z,0.84
2023-03-08T01:28:35.820Z,0.84
2023-03-08T01:29:25.878Z,0.84
2023-03-08T01:30:15.963Z,0.83
2023-03-08T01:31:06.015Z,0.84
2023-03-08T01:31:56.055Z,0.83
2023-03-08T01:32:46.092Z,0.85
2023-03-08T01:33:36.131Z,0.85
2023-03-08T01:34:26.195Z,0.86
2023-03-08T01:35:16.230Z,0.86
2023-03-08T01:36:06.365Z,0.86
2023-03-08T01:36:56.378Z,0.85
2023-03-08T01:37:46.428Z,0.86
2023-03-08T01:38:36.449Z,0.86
2023-03-08T01:39:26.511Z,0.86
2023-03-08T01:40:16.575Z,0.88
2023-03-08T01:41:06.624Z,0.88
2023-03-08T01:41:56.653Z,0.87
2023-03-08T01:42:46.698Z,0.89
2023-03-08T01:43:36.783Z,0.89
2023-03-08T01:44:26.913Z,0.88
2023-03-08T01:45:16.914Z,0.89
2023-03-08T01:46:06.954Z,0.90
2023-03-08T01:46:56.990Z,0.88
2023-03-08T01:47:47.037Z,0.89
2023-03-08T01:48:37.068Z,0.88
2023-03-08T01:49:27.144Z,0.88
2023-03-08T01:50:17.229Z,0.88
2023-03-08T01:51:07.300Z,0.88
2023-03-08T01:51:57.332Z,0.89
2023-03-08T01:52:47.405Z,0.88
2023-03-08T01:53:37.441Z,0.88
2023-03-08T01:54:27.483Z,0.88
2023-03-08T01:55:17.529Z,0.88
2023-03-08T01:56:07.579Z,0.87
2023-03-08T01:56:57.656Z,0.88
2023-03-08T01:57:47.725Z,0.89
2023-03-08T01:58:37.760Z,0.89
2023-03-08T01:59:28.116Z,0.90
2023-03-08T02:00:18.157Z,0.89
2023-03-08T02:01:08.232Z,0.90
2023-03-08T02:01:58.221Z,0.91
2023-03-08T02:02:48.296Z,0.91
2023-03-08T02:03:38.345Z,0.91
2023-03-08T02:04:28.397Z,0.92
2023-03-08T02:05:18.423Z,0.94
2023-03-08T02:06:08.507Z,0.93
2023-03-08T02:06:58.536Z,0.93
2023-03-08T02:07:48.630Z,0.94
2023-03-08T02:08:38.649Z,0.93
2023-03-08T02:09:28.780Z,0.95
2023-03-08T02:10:18.787Z,0.95
2023-03-08T02:11:08.867Z,0.95
2023-03-08T02:11:58.908Z,0.96
2023-03-08T02:12:48.969Z,0.96
2023-03-08T02:13:39.001Z,0.97
2023-03-08T02:14:29.109Z,0.96
2023-03-08T02:15:19.359Z,0.95
2023-03-08T02:16:09.428Z,0.96
2023-03-08T02:16:59.461Z,0.97
2023-03-08T02:17:49.855Z,0.95
2023-03-08T02:18:39.846Z,0.97
2023-03-08T02:19:29.956Z,0.97
2023-03-08T02:20:19.988Z,0.96
2023-03-08T02:21:10.031Z,0.97
2023-03-08T02:22:00.105Z,0.97
2023-03-08T02:22:50.133Z,0.95
2023-03-08T02:23:40.155Z,0.96
2023-03-08T02:24:30.263Z,0.97
2023-03-08T02:25:20.316Z,0.97
2023-03-08T02:26:10.337Z,0.97
2023-03-08T02:27:00.362Z,0.97
2023-03-08T02:27:50.435Z,0.97
2023-03-08T02:28:40.481Z,0.95
2023-03-08T02:29:30.576Z,0.97
2023-03-08T02:30:20.619Z,0.96
2023-03-08T02:31:10.654Z,0.96
2023-03-08T02:32:00.697Z,0.95
2023-03-08T02:32:50.776Z,0.97
2023-03-08T02:33:41.069Z,0.98
2023-03-08T02:34:31.158Z,0.97
2023-03-08T02:35:21.197Z,0.97
2023-03-08T02:36:11.333Z,0.98
2023-03-08T02:37:01.325Z,0.98
2023-03-08T02:37:51.365Z,0.98
2023-03-08T02:38:41.391Z,0.97
2023-03-08T02:39:31.491Z,0.98
2023-03-08T02:40:21.586Z,0.97
2023-03-08T02:41:11.640Z,0.96
2023-03-08T02:42:01.657Z,0.96
2023-03-08T02:42:53.475Z,0.96
2023-03-08T02:43:41.727Z,0.96
2023-03-08T02:44:31.814Z,0.96
2023-03-08T02:45:21.851Z,0.96
2023-03-08T02:46:11.918Z,0.97
2023-03-08T02:47:01.968Z,0.97
2023-03-08T02:47:52.049Z,0.99
2023-03-08T02:48:42.079Z,0.96
2023-03-08T02:49:32.152Z,0.96
2023-03-08T02:50:22.436Z,0.96
2023-03-08T02:51:12.479Z,0.97
2023-03-08T02:52:02.521Z,0.98
2023-03-08T02:52:52.595Z,0.98
2023-03-08T02:53:42.629Z,0.97
2023-03-08T02:54:32.719Z,0.98
2023-03-08T02:55:22.756Z,0.95
2023-03-08T02:56:12.798Z,0.94
2023-03-08T02:57:02.896Z,0.95
2023-03-08T02:57:52.960Z,0.95
2023-03-08T02:58:42.987Z,0.94
2023-03-08T02:59:33.098Z,0.95
2023-03-08T03:00:23.123Z,0.97
2023-03-08T03:01:13.290Z,0.97
2023-03-08T03:02:03.226Z,0.94
2023-03-08T03:02:53.269Z,0.97
2023-03-08T03:03:43.315Z,0.96
2023-03-08T03:04:33.356Z,0.97
2023-03-08T03:05:23.387Z,0.97
2023-03-08T03:06:13.486Z,0.95
2023-03-08T03:07:03.555Z,0.96
2023-03-08T03:07:53.580Z,0.96
2023-03-08T03:08:43.630Z,0.96
2023-03-08T03:09:33.689Z,0.94
2023-03-08T03:10:23.710Z,0.94
2023-03-08T03:11:13.749Z,0.94
2023-03-08T03:12:03.788Z,0.94
2023-03-08T03:12:53.860Z,0.95
2023-03-08T03:13:43.901Z,0.93
2023-03-08T03:14:33.992Z,0.94
2023-03-08T03:15:24.003Z,0.94
2023-03-08T03:16:14.126Z,0.95
2023-03-08T03:17:04.265Z,0.93
2023-03-08T03:17:54.308Z,0.94
2023-03-08T03:18:44.341Z,0.93
2023-03-08T03:19:34.409Z,0.94
2023-03-08T03:20:24.451Z,0.93
2023-03-08T03:21:14.499Z,0.92
2023-03-08T03:22:04.534Z,0.93
2023-03-08T03:22:54.592Z,0.92
2023-03-08T03:23:44.671Z,0.91
2023-03-08T03:24:37.429Z,0.92
2023-03-08T03:25:24.792Z,0.91
2023-03-08T03:26:14.859Z,0.91
2023-03-08T03:27:04.889Z,0.91
2023-03-08T03:27:54.965Z,0.90
2023-03-08T03:28:45.050Z,0.90
2023-03-08T03:29:35.119Z,0.88
2023-03-08T03:30:25.152Z,0.89
2023-03-08T03:31:15.373Z,0.89
2023-03-08T03:32:05.354Z,0.89
2023-03-08T03:32:55.399Z,0.88
2023-03-08T03:33:45.434Z,0.87
2023-03-08T03:34:35.515Z,0.88
2023-03-08T03:35:25.541Z,0.87
2023-03-08T03:36:15.586Z,0.88
2023-03-08T03:37:05.624Z,0.88
2023-03-08T03:37:55.706Z,0.89
2023-03-08T03:38:45.739Z,0.87
2023-03-08T03:39:35.800Z,0.86
2023-03-08T03:40:25.849Z,0.86
2023-03-08T03:41:15.895Z,0.86
2023-03-08T03:42:05.959Z,0.87
2023-03-08T03:42:55.999Z,0.88
2023-03-08T03:43:46.046Z,0.88
2023-03-08T03:44:36.155Z,0.87
2023-03-08T03:45:26.167Z,0.85
2023-03-08T03:46:16.288Z,0.85
2023-03-08T03:47:06.257Z,0.86
2023-03-08T03:47:56.297Z,0.86
2023-03-08T03:48:46.333Z,0.86
2023-03-08T03:49:36.430Z,0.85
2023-03-08T03:50:26.467Z,0.85
2023-03-08T03:51:16.551Z,0.85
2023-03-08T03:52:06.590Z,0.85
2023-03-08T03:52:56.656Z,0.85
2023-03-08T03:53:46.697Z,0.86
2023-03-08T03:54:36.782Z,0.86
2023-03-08T03:55:26.810Z,0.86
2023-03-08T03:56:16.848Z,0.86
2023-03-08T03:57:06.890Z,0.85
2023-03-08T03:57:56.981Z,0.85
2023-03-08T03:58:47.008Z,0.84
2023-03-08T03:59:37.118Z,0.85
2023-03-08T04:00:27.221Z,0.85
2023-03-08T04:01:17.184Z,0.85
2023-03-08T04:02:07.211Z,0.86
2023-03-08T04:02:57.345Z,0.84
2023-03-08T04:03:47.325Z,0.86
2023-03-08T04:04:37.488Z,0.85
2023-03-08T04:05:27.527Z,0.85
2023-03-08T04:06:17.615Z,0.85
2023-03-08T04:07:07.654Z,0.84
2023-03-08T04:07:57.732Z,0.84
2023-03-08T04:08:47.768Z,0.84
2023-03-08T04:09:37.863Z,0.85
2023-03-08T04:10:27.901Z,0.83
2023-03-08T04:11:17.953Z,0.85
2023-03-08T04:12:07.986Z,0.85
2023-03-08T04:12:58.073Z,0.85
2023-03-08T04:13:48.099Z,0.84
2023-03-08T04:14:38.197Z,0.86
2023-03-08T04:15:28.238Z,0.85
2023-03-08T04:16:18.356Z,0.83
2023-03-08T04:17:08.374Z,0.84
2023-03-08T04:17:58.450Z,0.84
2023-03-08T04:18:48.483Z,0.83
2023-03-08T04:19:38.547Z,0.84
2023-03-08T04:20:28.578Z,0.83
2023-03-08T04:21:18.619Z,0.82
2023-03-08T04:22:08.651Z,0.83
2023-03-08T04:22:58.732Z,0.86
2023-03-08T04:23:48.768Z,0.85
2023-03-08T04:24:38.867Z,0.86
2023-03-08T04:25:28.907Z,0.86
2023-03-08T04:26:18.957Z,0.85
2023-03-08T04:27:08.980Z,0.84
2023-03-08T04:27:59.040Z,0.84
2023-03-08T04:28:49.067Z,0.84
2023-03-08T04:29:39.120Z,0.85
2023-03-08T04:30:29.167Z,0.86
2023-03-08T04:31:19.342Z,0.85
2023-03-08T04:32:09.358Z,0.85
2023-03-08T04:32:59.369Z,0.85
2023-03-08T04:33:49.408Z,0.86
2023-03-08T04:34:39.472Z,0.84
2023-03-08T04:35:29.488Z,0.85
2023-03-08T04:36:19.520Z,0.84
2023-03-08T04:37:09.542Z,0.84
2023-03-08T04:37:59.715Z,0.85
2023-03-08T04:38:49.755Z,0.85
2023-03-08T04:39:39.813Z,0.85
2023-03-08T04:40:29.855Z,0.85
2023-03-08T04:41:19.894Z,0.85
2023-03-08T04:42:09.954Z,0.86
2023-03-08T04:42:59.987Z,0.85
2023-03-08T04:43:50.022Z,0.86
2023-03-08T04:44:40.136Z,0.84
2023-03-08T04:45:30.173Z,0.85
2023-03-08T04:46:20.278Z,0.87
2023-03-08T04:47:10.271Z,0.87
2023-03-08T04:48:00.333Z,0.87
2023-03-08T04:48:50.343Z,0.87
2023-03-08T04:49:40.410Z,0.89
2023-03-08T04:50:30.441Z,0.91
2023-03-08T04:51:20.526Z,0.90
2023-03-08T04:52:10.560Z,0.87
2023-03-08T04:53:00.603Z,0.91
2023-03-08T04:53:50.643Z,0.91
2023-03-08T04:54:40.703Z,0.92
2023-03-08T04:55:30.732Z,0.93
2023-03-08T04:56:20.766Z,0.95
2023-03-08T04:57:10.806Z,0.94
2023-03-08T04:58:00.884Z,0.95
2023-03-08T04:58:50.926Z,0.92
2023-03-08T04:59:40.986Z,0.92
2023-03-08T05:00:31.005Z,0.91
2023-03-08T05:01:21.089Z,0.91
2023-03-08T05:02:11.168Z,0.91
2023-03-08T05:03:01.164Z,0.91
2023-03-08T05:03:51.224Z,0.91
2023-03-08T05:04:41.312Z,0.91
2023-03-08T05:05:31.304Z,0.93
2023-03-08T05:06:21.392Z,0.92
2023-03-08T05:07:11.419Z,0.92
2023-03-08T05:08:01.462Z,0.92
2023-03-08T05:08:51.503Z,0.92
2023-03-08T05:09:42.967Z,0.92
2023-03-08T05:10:31.637Z,0.91
2023-03-08T05:11:21.737Z,0.92
2023-03-08T05:12:11.771Z,0.91
2023-03-08T05:13:01.809Z,0.91
2023-03-08T05:13:51.842Z,0.90
2023-03-08T05:14:41.909Z,0.91
2023-03-08T05:15:31.938Z,0.90
2023-03-08T05:16:22.055Z,0.91
2023-03-08T05:17:12.068Z,0.91
2023-03-08T05:18:02.114Z,0.94
2023-03-08T05:18:52.153Z,0.91
2023-03-08T05:19:42.364Z,0.92
2023-03-08T05:20:32.225Z,0.94
2023-03-08T05:21:22.263Z,0.95
2023-03-08T05:22:12.310Z,0.92
2023-03-08T05:23:02.368Z,0.91
2023-03-08T05:23:52.562Z,0.92
2023-03-08T05:24:42.610Z,0.92
2023-03-08T05:25:32.640Z,0.93
2023-03-08T05:26:22.720Z,0.92
2023-03-08T05:27:12.754Z,0.92
2023-03-08T05:28:02.849Z,0.94
2023-03-08T05:28:52.860Z,0.93
2023-03-08T05:29:42.933Z,0.94
2023-03-08T05:30:32.962Z,0.92
2023-03-08T05:31:23.151Z,0.92
2023-03-08T05:32:13.074Z,0.93
2023-03-08T05:33:03.114Z,0.90
2023-03-08T05:33:53.140Z,0.91
2023-03-08T05:34:43.211Z,0.90
2023-03-08T05:35:33.277Z,0.91
2023-03-08T05:36:23.273Z,0.91
2023-03-08T05:37:13.363Z,0.91
2023-03-08T05:38:03.422Z,0.93
2023-03-08T05:38:53.462Z,0.91
2023-03-08T05:39:43.525Z,0.93
2023-03-08T05:40:33.563Z,0.93
2023-03-08T05:41:23.610Z,0.92
2023-03-08T05:42:13.657Z,0.93
2023-03-08T05:43:03.719Z,0.93
2023-03-08T05:43:53.770Z,0.95
2023-03-08T05:44:43.831Z,0.93
2023-03-08T05:45:34.091Z,0.92
2023-03-08T05:46:23.962Z,0.91
2023-03-08T05:47:13.977Z,0.93
2023-03-08T05:48:04.032Z,0.92
2023-03-08T05:48:54.068Z,0.93
2023-03-08T05:49:44.117Z,0.91
2023-03-08T05:50:34.207Z,0.94
2023-03-08T05:51:24.261Z,0.94
2023-03-08T05:52:14.277Z,0.91
2023-03-08T05:53:04.312Z,0.94
2023-03-08T05:53:54.354Z,0.94
2023-03-08T05:54:44.411Z,0.91
2023-03-08T05:55:34.451Z,0.91
2023-03-08T05:56:24.496Z,0.91
2023-03-08T05:57:14.584Z,0.92
2023-03-08T05:58:04.640Z,0.91
2023-03-08T05:58:54.669Z,0.92
2023-03-08T05:59:44.769Z,0.91
2023-03-08T06:00:34.810Z,0.89
2023-03-08T06:01:24.871Z,0.90
2023-03-08T06:02:14.936Z,0.90
2023-03-08T06:03:05.021Z,0.91
2023-03-08T06:03:55.075Z,0.92
2023-03-08T06:04:45.133Z,0.90
2023-03-08T06:05:35.166Z,0.92
2023-03-08T06:06:25.209Z,0.92
2023-03-08T06:07:15.265Z,0.92
2023-03-08T06:08:05.300Z,0.91
2023-03-08T06:08:55.326Z,0.92
2023-03-08T06:09:45.391Z,0.91
2023-03-08T06:10:35.476Z,0.91
2023-03-08T06:11:25.513Z,0.91
2023-03-08T06:12:15.549Z,0.93
2023-03-08T06:13:05.599Z,0.91
2023-03-08T06:13:55.643Z,0.92
2023-03-08T06:14:45.699Z,0.93
2023-03-08T06:15:35.727Z,0.90
2023-03-08T06:16:25.812Z,0.91
2023-03-08T06:17:15.854Z,0.92
2023-03-08T06:18:05.942Z,0.92
2023-03-08T06:18:55.979Z,0.92
2023-03-08T06:19:46.034Z,0.93
2023-03-08T06:20:36.084Z,0.92
2023-03-08T06:21:26.110Z,0.91
2023-03-08T06:22:16.142Z,0.92
2023-03-08T06:23:06.207Z,0.94
2023-03-08T06:23:56.259Z,0.91
2023-03-08T06:24:46.363Z,0.91
2023-03-08T06:25:36.398Z,0.91
2023-03-08T06:26:26.433Z,0.92
2023-03-08T06:27:16.472Z,0.91
2023-03-08T06:28:06.519Z,0.91
2023-03-08T06:28:56.554Z,0.90
2023-03-08T06:29:46.618Z,0.92
2023-03-08T06:30:36.711Z,0.92
2023-03-08T06:31:26.746Z,0.91
2023-03-08T06:32:16.842Z,0.91
2023-03-08T06:33:06.859Z,0.91
2023-03-08T06:33:56.888Z,0.89
2023-03-08T06:34:47.040Z,0.92
2023-03-08T06:35:37.077Z,0.92
2023-03-08T06:36:27.078Z,0.92
2023-03-08T06:37:17.111Z,0.93
2023-03-08T06:38:07.179Z,0.93
2023-03-08T06:38:57.254Z,0.94
2023-03-08T06:39:47.280Z,0.94
2023-03-08T06:40:37.325Z,0.94
2023-03-08T06:41:27.373Z,0.94
2023-03-08T06:42:17.402Z,0.95
2023-03-08T06:43:07.463Z,0.95
2023-03-08T06:43:57.538Z,0.96
2023-03-08T06:44:47.609Z,0.95
2023-03-08T06:45:37.640Z,0.93
2023-03-08T06:46:27.831Z,0.94
2023-03-08T06:47:17.773Z,0.93
2023-03-08T06:48:07.849Z,0.93
2023-03-08T06:48:57.882Z,0.92
2023-03-08T06:49:47.946Z,0.91
2023-03-08T06:50:38.120Z,0.93
2023-03-08T06:51:28.153Z,0.92
2023-03-08T06:52:18.185Z,0.91
2023-03-08T06:53:08.237Z,0.90
2023-03-08T06:53:58.258Z,0.90
2023-03-08T06:54:48.355Z,0.90
2023-03-08T06:55:38.361Z,0.90
2023-03-08T06:56:28.446Z,0.92
2023-03-08T06:57:18.479Z,0.92
2023-03-08T06:58:08.560Z,0.90
2023-03-08T06:58:58.594Z,0.89
2023-03-08T06:59:48.656Z,0.92
2023-03-08T07:00:38.700Z,0.90
2023-03-08T07:01:28.821Z,0.91
2023-03-08T07:02:18.776Z,0.92
2023-03-08T07:03:08.803Z,0.92
2023-03-08T07:03:58.998Z,0.92
2023-03-08T07:04:49.761Z,0.93
2023-03-08T07:05:38.975Z,0.93
2023-03-08T07:06:29.054Z,0.93
2023-03-08T07:07:19.133Z,0.92
2023-03-08T07:08:09.149Z,0.92
2023-03-08T07:08:59.201Z,0.92
2023-03-08T07:09:49.244Z,0.93
2023-03-08T07:10:39.437Z,0.94
2023-03-08T07:11:29.468Z,0.93
2023-03-08T07:12:19.496Z,0.94
2023-03-08T07:13:09.547Z,0.92
2023-03-08T07:13:59.582Z,0.93
2023-03-08T07:14:49.649Z,0.93
2023-03-08T07:15:39.709Z,0.93
2023-03-08T07:16:29.733Z,0.94
2023-03-08T07:17:19.824Z,0.93
2023-03-08T07:18:09.864Z,0.95
2023-03-08T07:18:59.886Z,0.92
2023-03-08T07:19:49.957Z,0.95
2023-03-08T07:20:40.001Z,0.92
2023-03-08T07:21:30.089Z,0.93
2023-03-08T07:22:20.112Z,0.92
2023-03-08T07:23:10.150Z,0.91
2023-03-08T07:24:00.232Z,0.91
2023-03-08T07:24:50.334Z,0.91
2023-03-08T07:25:40.370Z,0.92
2023-03-08T07:26:30.447Z,0.93
2023-03-08T07:27:20.454Z,0.94
2023-03-08T07:28:10.504Z,0.93
2023-03-08T07:29:00.526Z,0.93
2023-03-08T07:29:50.638Z,0.93
2023-03-08T07:30:40.657Z,0.92
2023-03-08T07:31:30.699Z,0.94
2023-03-08T07:32:20.941Z,0.92
2023-03-08T07:33:10.824Z,0.94
2023-03-08T07:34:00.827Z,0.93
2023-03-08T07:34:50.879Z,0.92
2023-03-08T07:35:40.980Z,0.92
2023-03-08T07:36:31.007Z,0.94
2023-03-08T07:37:21.082Z,0.93
2023-03-08T07:38:11.120Z,0.93
2023-03-08T07:39:01.161Z,0.91
2023-03-08T07:39:51.232Z,0.91
2023-03-08T07:40:41.265Z,0.92
2023-03-08T07:41:31.305Z,0.92
2023-03-08T07:42:21.368Z,0.91
2023-03-08T07:43:11.401Z,0.91
2023-03-08T07:44:01.467Z,0.91
2023-03-08T07:44:51.550Z,0.90
2023-03-08T07:45:41.546Z,0.92
2023-03-08T07:46:31.648Z,0.92
2023-03-08T07:47:21.660Z,0.93
2023-03-08T07:48:11.689Z,0.91
2023-03-08T07:49:01.715Z,0.94
2023-03-08T07:49:51.780Z,0.92
2023-03-08T07:50:41.900Z,0.94
2023-03-08T07:51:31.947Z,0.93
2023-03-08T07:52:21.980Z,0.92
2023-03-08T07:53:12.021Z,0.92
2023-03-08T07:54:02.057Z,0.92
2023-03-08T07:54:52.136Z,0.92
2023-03-08T07:55:42.163Z,0.92
2023-03-08T07:56:32.206Z,0.91
2023-03-08T07:57:22.291Z,0.92
2023-03-08T07:58:12.364Z,0.92
2023-03-08T07:59:02.374Z,0.93
2023-03-08T07:59:54.421Z,0.95
2023-03-08T08:00:42.504Z,0.93
2023-03-08T08:01:32.534Z,0.93
2023-03-08T08:02:22.603Z,0.94
2023-03-08T08:03:12.786Z,0.92
2023-03-08T08:04:02.772Z,0.93
2023-03-08T08:04:53.063Z,0.92
2023-03-08T08:05:43.021Z,0.93
2023-03-08T08:06:32.995Z,0.92
2023-03-08T08:07:23.032Z,0.92
2023-03-08T08:08:13.076Z,0.94
2023-03-08T08:09:03.117Z,0.94
2023-03-08T08:09:53.220Z,0.95
2023-03-08T08:10:43.263Z,0.94
2023-03-08T08:11:33.330Z,0.95
2023-03-08T08:12:23.370Z,0.94
2023-03-08T08:13:13.413Z,0.94
2023-03-08T08:14:03.488Z,0.94
2023-03-08T08:14:53.509Z,0.95
2023-03-08T08:15:43.558Z,0.93
2023-03-08T08:16:33.674Z,0.93
2023-03-08T08:17:23.678Z,0.93
2023-03-08T08:18:13.763Z,0.94
2023-03-08T08:19:03.801Z,0.93
2023-03-08T08:19:53.895Z,0.93
2023-03-08T08:20:44.180Z,0.95
2023-03-08T08:21:34.218Z,0.95
2023-03-08T08:22:24.307Z,0.96
2023-03-08T08:23:14.334Z,0.94
2023-03-08T08:24:04.366Z,0.94
2023-03-08T08:24:54.461Z,0.95
2023-03-08T08:25:44.492Z,0.92
2023-03-08T08:26:34.537Z,0.93
2023-03-08T08:27:24.668Z,0.93
2023-03-08T08:28:14.707Z,0.94
2023-03-08T08:29:04.742Z,0.92
2023-03-08T08:29:54.820Z,0.94
2023-03-08T08:30:44.833Z,0.94
2023-03-08T08:31:34.976Z,0.95
2023-03-08T08:32:25.060Z,0.97
2023-03-08T08:33:15.015Z,0.96
2023-03-08T08:34:05.094Z,0.96
2023-03-08T08:34:55.156Z,0.96
2023-03-08T08:35:45.278Z,0.96
2023-03-08T08:36:35.267Z,0.96
2023-03-08T08:37:25.296Z,0.96
2023-03-08T08:38:15.386Z,0.97
2023-03-08T08:39:05.415Z,0.97
2023-03-08T08:39:55.472Z,0.95
2023-03-08T08:40:45.527Z,0.97
2023-03-08T08:41:35.564Z,0.97
2023-03-08T08:42:25.593Z,0.97
2023-03-08T08:43:15.687Z,0.97
2023-03-08T08:44:05.713Z,0.96
2023-03-08T08:44:55.792Z,0.94
2023-03-08T08:45:45.906Z,0.95
2023-03-08T08:46:35.880Z,0.94
2023-03-08T08:47:25.954Z,0.95
2023-03-08T08:48:15.990Z,0.96
2023-03-08T08:49:06.023Z,0.97
2023-03-08T08:49:56.103Z,0.97
2023-03-08T08:50:46.132Z,0.96
2023-03-08T08:51:36.170Z,0.97
2023-03-08T08:52:26.230Z,0.95
2023-03-08T08:53:16.328Z,0.95
2023-03-08T08:54:06.412Z,0.95
2023-03-08T08:54:56.432Z,0.94
2023-03-08T08:55:46.482Z,0.94
2023-03-08T08:56:36.516Z,0.96
2023-03-08T08:57:26.555Z,0.95
2023-03-08T08:58:16.607Z,0.98
2023-03-08T08:59:06.632Z,0.96
2023-03-08T08:59:56.694Z,0.97
2023-03-08T09:00:46.787Z,0.97
2023-03-08T09:01:36.847Z,0.97
2023-03-08T09:02:26.999Z,0.97
2023-03-08T09:03:16.927Z,0.95
2023-03-08T09:04:07.030Z,0.95
2023-03-08T09:04:57.133Z,0.96
2023-03-08T09:05:47.054Z,0.98
2023-03-08T09:06:37.101Z,0.97
2023-03-08T09:07:27.182Z,0.98
2023-03-08T09:08:17.222Z,0.97
2023-03-08T09:09:07.256Z,0.96
2023-03-08T09:09:57.317Z,0.96
2023-03-08T09:10:47.349Z,0.96
2023-03-08T09:11:48.433Z,0.96
2023-03-08T09:12:28.448Z,0.96
2023-03-08T09:13:17.501Z,0.96
2023-03-08T09:14:07.558Z,0.95
2023-03-08T09:14:57.656Z,0.97
2023-03-08T09:15:47.684Z,0.95
2023-03-08T09:16:37.775Z,0.95
2023-03-08T09:17:27.808Z,0.95
2023-03-08T09:18:17.959Z,0.95
2023-03-08T09:19:07.988Z,0.94
2023-03-08T09:19:58.046Z,0.97
2023-03-08T09:20:48.082Z,0.94
2023-03-08T09:21:38.130Z,0.94
2023-03-08T09:22:28.185Z,0.94
2023-03-08T09:23:18.245Z,0.96
2023-03-08T09:24:08.255Z,0.96
2023-03-08T09:24:58.354Z,0.95
2023-03-08T09:25:48.396Z,0.96
2023-03-08T09:26:38.451Z,0.96
2023-03-08T09:27:28.476Z,0.94
2023-03-08T09:28:18.521Z,0.97
2023-03-08T09:29:08.563Z,0.98
2023-03-08T09:29:58.619Z,0.97
2023-03-08T09:30:48.665Z,0.96
2023-03-08T09:31:38.889Z,0.94
2023-03-08T09:32:28.859Z,0.96
2023-03-08T09:33:18.875Z,0.95
2023-03-08T09:34:09.598Z,0.94
2023-03-08T09:34:58.950Z,0.96
2023-03-08T09:35:48.988Z,0.97
2023-03-08T09:36:39.026Z,0.95
2023-03-08T09:37:29.064Z,0.92
2023-03-08T09:38:19.103Z,0.94
2023-03-08T09:39:09.150Z,0.96
2023-03-08T09:39:59.244Z,0.92
2023-03-08T09:40:49.282Z,0.96
2023-03-08T09:41:39.333Z,0.95
2023-03-08T09:42:29.381Z,0.96
2023-03-08T09:43:19.419Z,0.95
2023-03-08T09:44:09.459Z,0.95
2023-03-08T09:44:59.524Z,0.96
2023-03-08T09:45:49.604Z,0.97
2023-03-08T09:46:39.654Z,0.96
2023-03-08T09:47:29.702Z,0.98
2023-03-08T09:48:19.784Z,0.98
2023-03-08T09:49:09.879Z,0.98
2023-03-08T09:49:59.880Z,0.99
2023-03-08T09:50:49.928Z,0.96
2023-03-08T09:51:39.958Z,0.95
2023-03-08T09:52:30.000Z,0.95
2023-03-08T09:53:20.102Z,0.95
2023-03-08T09:54:10.137Z,0.96
2023-03-08T09:55:00.276Z,0.97
2023-03-08T09:55:50.224Z,0.95
2023-03-08T09:56:40.267Z,0.96
2023-03-08T09:57:30.375Z,0.96
2023-03-08T09:58:20.343Z,0.96
2023-03-08T09:59:10.385Z,0.95
2023-03-08T10:00:00.541Z,0.94
2023-03-08T10:00:50.613Z,0.96
2023-03-08T10:01:40.629Z,0.99
2023-03-08T10:02:30.669Z,0.96
2023-03-08T10:03:20.723Z,0.97
2023-03-08T10:04:10.833Z,1.02
2023-03-08T10:05:12.340Z,0.98
2023-03-08T10:05:51.829Z,0.98
2023-03-08T10:06:40.875Z,0.99
2023-03-08T10:07:30.903Z,0.99
2023-03-08T10:08:20.988Z,0.99
2023-03-08T10:09:11.015Z,0.99
2023-03-08T10:10:01.116Z,0.97
2023-03-08T10:10:51.148Z,1.00
2023-03-08T10:11:41.350Z,1.00
2023-03-08T10:12:31.406Z,0.99
2023-03-08T10:13:21.435Z,1.00
2023-03-08T10:14:11.466Z,1.00
2023-03-08T10:15:01.526Z,0.99
2023-03-08T10:15:51.552Z,1.00
2023-03-08T10:16:41.713Z,0.99
2023-03-08T10:17:31.673Z,1.01
2023-03-08T10:18:21.817Z,1.01
2023-03-08T10:19:11.862Z,0.99
2023-03-08T10:20:01.958Z,1.00
2023-03-08T10:20:52.011Z,0.99
2023-03-08T10:21:42.031Z,1.00
2023-03-08T10:22:32.065Z,0.97
2023-03-08T10:23:22.107Z,0.99
2023-03-08T10:24:12.149Z,0.98
2023-03-08T10:25:02.255Z,1.00
2023-03-08T10:25:52.299Z,0.98
2023-03-08T10:26:42.372Z,1.00
2023-03-08T10:27:32.425Z,1.00
2023-03-08T10:28:22.458Z,0.98
2023-03-08T10:29:12.496Z,0.98
2023-03-08T10:30:02.614Z,0.99
2023-03-08T10:30:52.676Z,0.99
2023-03-08T10:31:42.708Z,0.97
2023-03-08T10:32:32.752Z,0.97
2023-03-08T10:33:22.843Z,1.00
2023-03-08T10:34:12.871Z,0.99
2023-03-08T10:35:02.953Z,0.97
2023-03-08T10:35:53.136Z,1.01
2023-03-08T10:36:43.056Z,1.00
2023-03-08T10:37:33.102Z,1.01
2023-03-08T10:38:23.227Z,0.99
2023-03-08T10:39:13.259Z,1.00
2023-03-08T10:40:03.345Z,0.99
2023-03-08T10:40:53.370Z,0.98
2023-03-08T10:41:43.424Z,0.99
2023-03-08T10:42:33.472Z,1.02
2023-03-08T10:43:23.697Z,1.00
2023-03-08T10:44:13.738Z,1.02
2023-03-08T10:45:03.801Z,1.03
2023-03-08T10:45:53.860Z,1.00
2023-03-08T10:46:43.888Z,0.99
2023-03-08T10:47:33.922Z,0.99
2023-03-08T10:48:24.007Z,0.97
2023-03-08T10:49:14.039Z,0.98
2023-03-08T10:50:04.142Z,1.00
2023-03-08T10:50:54.193Z,0.99
2023-03-08T10:51:44.237Z,1.00
2023-03-08T10:52:34.290Z,1.00
2023-03-08T10:53:24.309Z,1.04
2023-03-08T10:54:14.344Z,1.00
2023-03-08T10:55:04.414Z,1.02
2023-03-08T10:55:54.509Z,1.00
2023-03-08T10:56:44.570Z,1.02
2023-03-08T10:57:34.601Z,1.02
2023-03-08T10:58:24.632Z,1.02
2023-03-08T10:59:14.665Z,1.02
2023-03-08T11:00:04.718Z,1.01
2023-03-08T11:00:54.752Z,0.98
2023-03-08T11:01:44.840Z,0.97
2023-03-08T11:02:34.881Z,0.97
2023-03-08T11:03:24.921Z,1.00
2023-03-08T11:04:15.055Z,0.98
2023-03-08T11:05:05.075Z,0.98
2023-03-08T11:05:55.072Z,1.00